sensor_id;sensor_type;location;lat;lon;timestamp;P1;durP1;ratioP1;P2;durP2;ratioP2
16442;SDS011;8331;51.654;14.376;2022-12-22T00:02:26;16.03;;;11.53;;
16442;SDS011;8331;51.654;14.376;2022-12-22T00:05:14;16.50;;;11.43;;
16442;SDS011;8331;51.654;14.376;2022-12-22T00:08:00;15.50;;;11.33;;
16442;SDS011;8331;51.654;14.376;2022-12-22T00:10:46;18.23;;;11.40;;
16442;SDS011;8331;51.654;14.376;2022-12-22T00:13:31;17.30;;;12.13;;
16442;SDS011;8331;51.654;14.376;2022-12-22T00:16:17;15.47;;;11.03;;
16442;SDS011;8331;51.654;14.376;2022-12-22T00:19:02;13.83;;;10.83;;
16442;SDS011;8331;51.654;14.376;2022-12-22T00:21:47;15.27;;;11.33;;
16442;SDS011;8331;51.654;14.376;2022-12-22T00:24:32;16.43;;;12.07;;
16442;SDS011;8331;51.654;14.376;2022-12-22T00:27:23;15.70;;;13.57;;
16442;SDS011;8331;51.654;14.376;2022-12-22T00:30:11;16.77;;;11.97;;
16442;SDS011;8331;51.654;14.376;2022-12-22T00:32:57;14.53;;;11.03;;
16442;SDS011;8331;51.654;14.376;2022-12-22T00:35:43;12.03;;;10.17;;
16442;SDS011;8331;51.654;14.376;2022-12-22T00:38:28;16.03;;;11.20;;
16442;SDS011;8331;51.654;14.376;2022-12-22T00:41:13;12.80;;;10.37;;
16442;SDS011;8331;51.654;14.376;2022-12-22T00:43:58;13.33;;;11.10;;
16442;SDS011;8331;51.654;14.376;2022-12-22T00:46:43;12.90;;;10.13;;
16442;SDS011;8331;51.654;14.376;2022-12-22T00:49:30;14.40;;;10.30;;
16442;SDS011;8331;51.654;14.376;2022-12-22T00:52:15;13.93;;;10.40;;
16442;SDS011;8331;51.654;14.376;2022-12-22T00:55:05;11.50;;;9.83;;
16442;SDS011;8331;51.654;14.376;2022-12-22T00:57:55;13.10;;;9.97;;
16442;SDS011;8331;51.654;14.376;2022-12-22T01:00:40;11.67;;;9.73;;
16442;SDS011;8331;51.654;14.376;2022-12-22T01:03:26;13.67;;;9.87;;
16442;SDS011;8331;51.654;14.376;2022-12-22T01:06:11;12.27;;;9.57;;
16442;SDS011;8331;51.654;14.376;2022-12-22T01:08:57;12.10;;;9.93;;
16442;SDS011;8331;51.654;14.376;2022-12-22T01:11:42;11.00;;;9.10;;
16442;SDS011;8331;51.654;14.376;2022-12-22T01:14:27;13.37;;;9.57;;
16442;SDS011;8331;51.654;14.376;2022-12-22T01:17:13;11.70;;;8.70;;
16442;SDS011;8331;51.654;14.376;2022-12-22T01:19:58;11.90;;;9.10;;
16442;SDS011;8331;51.654;14.376;2022-12-22T01:22:44;13.80;;;10.27;;
16442;SDS011;8331;51.654;14.376;2022-12-22T01:25:29;12.97;;;9.53;;
16442;SDS011;8331;51.654;14.376;2022-12-22T01:28:15;11.63;;;9.23;;
16442;SDS011;8331;51.654;14.376;2022-12-22T01:31:25;11.50;;;9.60;;
16442;SDS011;8331;51.654;14.376;2022-12-22T01:34:06;12.73;;;8.83;;
16442;SDS011;8331;51.654;14.376;2022-12-22T01:36:52;12.43;;;8.70;;
16442;SDS011;8331;51.654;14.376;2022-12-22T01:39:38;13.13;;;9.57;;
16442;SDS011;8331;51.654;14.376;2022-12-22T01:42:23;12.37;;;9.57;;
16442;SDS011;8331;51.654;14.376;2022-12-22T01:45:30;11.07;;;9.20;;
16442;SDS011;8331;51.654;14.376;2022-12-22T01:48:15;12.70;;;9.80;;
16442;SDS011;8331;51.654;14.376;2022-12-22T01:51:01;11.90;;;9.43;;
16442;SDS011;8331;51.654;14.376;2022-12-22T01:53:47;11.77;;;9.07;;
16442;SDS011;8331;51.654;14.376;2022-12-22T01:56:32;10.97;;;8.90;;
16442;SDS011;8331;51.654;14.376;2022-12-22T01:59:17;9.60;;;8.60;;
16442;SDS011;8331;51.654;14.376;2022-12-22T02:02:04;9.70;;;8.57;;
16442;SDS011;8331;51.654;14.376;2022-12-22T02:04:50;11.70;;;9.70;;
16442;SDS011;8331;51.654;14.376;2022-12-22T02:16:13;14.53;;;9.03;;
16442;SDS011;8331;51.654;14.376;2022-12-22T02:24:42;9.43;;;8.53;;
16442;SDS011;8331;51.654;14.376;2022-12-22T02:27:30;11.20;;;8.30;;
16442;SDS011;8331;51.654;14.376;2022-12-22T02:30:17;10.87;;;8.33;;
16442;SDS011;8331;51.654;14.376;2022-12-22T02:33:03;9.63;;;8.20;;
16442;SDS011;8331;51.654;14.376;2022-12-22T02:35:59;11.47;;;8.83;;
16442;SDS011;8331;51.654;14.376;2022-12-22T02:50:26;9.50;;;8.43;;
16442;SDS011;8331;51.654;14.376;2022-12-22T02:53:14;11.30;;;9.73;;
16442;SDS011;8331;51.654;14.376;2022-12-22T02:55:59;10.53;;;8.73;;
16442;SDS011;8331;51.654;14.376;2022-12-22T02:58:46;9.23;;;8.27;;
16442;SDS011;8331;51.654;14.376;2022-12-22T03:01:31;12.70;;;9.03;;
16442;SDS011;8331;51.654;14.376;2022-12-22T03:04:17;10.60;;;9.50;;
16442;SDS011;8331;51.654;14.376;2022-12-22T03:07:02;10.37;;;8.87;;
16442;SDS011;8331;51.654;14.376;2022-12-22T03:09:48;10.37;;;8.87;;
16442;SDS011;8331;51.654;14.376;2022-12-22T03:12:33;11.50;;;9.73;;
16442;SDS011;8331;51.654;14.376;2022-12-22T03:15:18;12.57;;;9.43;;
16442;SDS011;8331;51.654;14.376;2022-12-22T03:18:04;10.27;;;9.17;;
16442;SDS011;8331;51.654;14.376;2022-12-22T03:20:50;12.37;;;9.37;;
16442;SDS011;8331;51.654;14.376;2022-12-22T03:23:35;11.57;;;9.33;;
16442;SDS011;8331;51.654;14.376;2022-12-22T03:26:20;9.57;;;8.57;;
16442;SDS011;8331;51.654;14.376;2022-12-22T03:28:47;11.20;;;9.80;;
16442;SDS011;8331;51.654;14.376;2022-12-22T03:31:13;11.40;;;8.60;;
16442;SDS011;8331;51.654;14.376;2022-12-22T03:33:40;10.37;;;9.23;;
16442;SDS011;8331;51.654;14.376;2022-12-22T03:36:07;12.57;;;9.07;;
16442;SDS011;8331;51.654;14.376;2022-12-22T03:38:33;10.27;;;9.07;;
16442;SDS011;8331;51.654;14.376;2022-12-22T03:41:00;10.43;;;9.20;;
16442;SDS011;8331;51.654;14.376;2022-12-22T03:43:26;10.80;;;9.57;;
16442;SDS011;8331;51.654;14.376;2022-12-22T03:46:12;11.60;;;9.33;;
16442;SDS011;8331;51.654;14.376;2022-12-22T03:48:58;10.90;;;9.30;;
16442;SDS011;8331;51.654;14.376;2022-12-22T03:51:50;9.67;;;8.67;;
16442;SDS011;8331;51.654;14.376;2022-12-22T03:54:18;11.20;;;9.00;;
16442;SDS011;8331;51.654;14.376;2022-12-22T03:56:45;10.10;;;9.10;;
16442;SDS011;8331;51.654;14.376;2022-12-22T03:59:11;10.90;;;9.20;;
16442;SDS011;8331;51.654;14.376;2022-12-22T04:01:40;10.83;;;9.83;;
16442;SDS011;8331;51.654;14.376;2022-12-22T04:04:07;10.10;;;9.10;;
16442;SDS011;8331;51.654;14.376;2022-12-22T04:06:33;10.33;;;9.10;;
16442;SDS011;8331;51.654;14.376;2022-12-22T04:09:00;10.67;;;9.57;;
16442;SDS011;8331;51.654;14.376;2022-12-22T04:11:26;9.70;;;8.73;;
16442;SDS011;8331;51.654;14.376;2022-12-22T04:14:11;11.07;;;9.80;;
16442;SDS011;8331;51.654;14.376;2022-12-22T04:16:38;10.60;;;9.50;;
16442;SDS011;8331;51.654;14.376;2022-12-22T04:19:05;9.40;;;8.30;;
16442;SDS011;8331;51.654;14.376;2022-12-22T04:21:32;10.07;;;8.83;;
16442;SDS011;8331;51.654;14.376;2022-12-22T04:23:59;9.47;;;8.57;;
16442;SDS011;8331;51.654;14.376;2022-12-22T04:26:26;10.63;;;9.53;;
16442;SDS011;8331;51.654;14.376;2022-12-22T04:28:52;9.70;;;8.70;;
16442;SDS011;8331;51.654;14.376;2022-12-22T04:31:20;10.13;;;9.13;;
16442;SDS011;8331;51.654;14.376;2022-12-22T04:33:47;10.13;;;9.13;;
16442;SDS011;8331;51.654;14.376;2022-12-22T04:36:14;10.93;;;9.83;;
16442;SDS011;8331;51.654;14.376;2022-12-22T04:38:40;10.70;;;9.53;;
16442;SDS011;8331;51.654;14.376;2022-12-22T04:41:07;10.97;;;9.77;;
16442;SDS011;8331;51.654;14.376;2022-12-22T04:43:34;11.33;;;10.20;;
16442;SDS011;8331;51.654;14.376;2022-12-22T04:46:01;10.53;;;9.47;;
16442;SDS011;8331;51.654;14.376;2022-12-22T04:48:28;10.47;;;9.43;;
16442;SDS011;8331;51.654;14.376;2022-12-22T04:50:56;10.47;;;9.37;;
16442;SDS011;8331;51.654;14.376;2022-12-22T04:53:23;11.10;;;9.87;;
16442;SDS011;8331;51.654;14.376;2022-12-22T04:55:54;10.77;;;9.67;;
16442;SDS011;8331;51.654;14.376;2022-12-22T04:58:21;11.37;;;9.73;;
16442;SDS011;8331;51.654;14.376;2022-12-22T05:00:47;11.20;;;10.10;;
16442;SDS011;8331;51.654;14.376;2022-12-22T05:03:14;10.43;;;9.30;;
16442;SDS011;8331;51.654;14.376;2022-12-22T05:05:41;11.23;;;10.00;;
16442;SDS011;8331;51.654;14.376;2022-12-22T05:08:07;11.83;;;9.90;;
16442;SDS011;8331;51.654;14.376;2022-12-22T05:10:33;10.60;;;9.60;;
16442;SDS011;8331;51.654;14.376;2022-12-22T05:13:00;12.27;;;10.47;;
16442;SDS011;8331;51.654;14.376;2022-12-22T05:15:28;11.87;;;10.37;;
16442;SDS011;8331;51.654;14.376;2022-12-22T05:17:55;12.20;;;10.57;;
16442;SDS011;8331;51.654;14.376;2022-12-22T05:20:22;13.57;;;10.63;;
16442;SDS011;8331;51.654;14.376;2022-12-22T05:22:48;13.73;;;11.33;;
16442;SDS011;8331;51.654;14.376;2022-12-22T05:25:16;12.07;;;10.40;;
16442;SDS011;8331;51.654;14.376;2022-12-22T05:27:43;13.93;;;10.57;;
16442;SDS011;8331;51.654;14.376;2022-12-22T05:30:10;13.57;;;10.40;;
16442;SDS011;8331;51.654;14.376;2022-12-22T05:32:36;13.00;;;10.93;;
16442;SDS011;8331;51.654;14.376;2022-12-22T05:35:03;12.63;;;10.77;;
16442;SDS011;8331;51.654;14.376;2022-12-22T05:37:30;12.30;;;11.03;;
16442;SDS011;8331;51.654;14.376;2022-12-22T05:39:57;14.57;;;10.10;;
16442;SDS011;8331;51.654;14.376;2022-12-22T05:42:23;12.67;;;10.27;;
16442;SDS011;8331;51.654;14.376;2022-12-22T05:47:28;11.63;;;10.10;;
16442;SDS011;8331;51.654;14.376;2022-12-22T05:49:55;11.57;;;9.83;;
16442;SDS011;8331;51.654;14.376;2022-12-22T05:52:21;12.83;;;10.93;;
16442;SDS011;8331;51.654;14.376;2022-12-22T05:54:48;11.93;;;10.40;;
16442;SDS011;8331;51.654;14.376;2022-12-22T05:57:14;11.43;;;10.23;;
16442;SDS011;8331;51.654;14.376;2022-12-22T05:59:41;14.17;;;11.53;;
16442;SDS011;8331;51.654;14.376;2022-12-22T06:02:08;13.30;;;11.03;;
16442;SDS011;8331;51.654;14.376;2022-12-22T06:04:34;12.23;;;10.77;;
16442;SDS011;8331;51.654;14.376;2022-12-22T06:07:01;13.13;;;10.43;;
16442;SDS011;8331;51.654;14.376;2022-12-22T06:09:28;15.07;;;13.50;;
16442;SDS011;8331;51.654;14.376;2022-12-22T06:11:54;17.50;;;12.73;;
16442;SDS011;8331;51.654;14.376;2022-12-22T06:14:21;13.47;;;12.07;;
16442;SDS011;8331;51.654;14.376;2022-12-22T06:16:47;14.73;;;12.27;;
16442;SDS011;8331;51.654;14.376;2022-12-22T06:19:14;13.80;;;12.17;;
16442;SDS011;8331;51.654;14.376;2022-12-22T06:21:40;11.10;;;10.00;;
16442;SDS011;8331;51.654;14.376;2022-12-22T06:24:07;12.40;;;10.60;;
16442;SDS011;8331;51.654;14.376;2022-12-22T06:26:33;14.97;;;11.53;;
16442;SDS011;8331;51.654;14.376;2022-12-22T06:29:00;11.73;;;10.23;;
16442;SDS011;8331;51.654;14.376;2022-12-22T06:31:26;11.87;;;10.20;;
16442;SDS011;8331;51.654;14.376;2022-12-22T06:33:53;11.80;;;9.67;;
16442;SDS011;8331;51.654;14.376;2022-12-22T06:36:20;12.43;;;9.77;;
16442;SDS011;8331;51.654;14.376;2022-12-22T06:38:46;11.53;;;10.33;;
16442;SDS011;8331;51.654;14.376;2022-12-22T06:41:13;12.23;;;10.33;;
16442;SDS011;8331;51.654;14.376;2022-12-22T06:43:39;10.97;;;9.77;;
16442;SDS011;8331;51.654;14.376;2022-12-22T06:46:06;11.60;;;10.37;;
16442;SDS011;8331;51.654;14.376;2022-12-22T06:48:32;11.40;;;10.20;;
16442;SDS011;8331;51.654;14.376;2022-12-22T06:50:59;12.47;;;10.27;;
16442;SDS011;8331;51.654;14.376;2022-12-22T06:53:25;11.77;;;9.50;;
16442;SDS011;8331;51.654;14.376;2022-12-22T06:55:52;12.63;;;9.87;;
16442;SDS011;8331;51.654;14.376;2022-12-22T06:58:18;12.40;;;10.53;;
16442;SDS011;8331;51.654;14.376;2022-12-22T07:00:45;13.37;;;10.60;;
16442;SDS011;8331;51.654;14.376;2022-12-22T07:03:14;11.90;;;10.03;;
16442;SDS011;8331;51.654;14.376;2022-12-22T07:05:42;11.87;;;10.53;;
16442;SDS011;8331;51.654;14.376;2022-12-22T07:08:08;12.37;;;10.53;;
16442;SDS011;8331;51.654;14.376;2022-12-22T07:10:35;13.10;;;10.07;;
16442;SDS011;8331;51.654;14.376;2022-12-22T07:13:20;11.63;;;10.47;;
16442;SDS011;8331;51.654;14.376;2022-12-22T07:15:47;13.30;;;11.00;;
16442;SDS011;8331;51.654;14.376;2022-12-22T07:18:22;13.13;;;10.80;;
16442;SDS011;8331;51.654;14.376;2022-12-22T07:20:49;11.47;;;10.00;;
16442;SDS011;8331;51.654;14.376;2022-12-22T07:23:16;12.50;;;11.20;;
16442;SDS011;8331;51.654;14.376;2022-12-22T07:25:42;13.40;;;11.07;;
16442;SDS011;8331;51.654;14.376;2022-12-22T07:28:09;13.50;;;12.10;;
16442;SDS011;8331;51.654;14.376;2022-12-22T07:30:43;12.00;;;10.73;;
16442;SDS011;8331;51.654;14.376;2022-12-22T07:33:10;13.57;;;11.27;;
16442;SDS011;8331;51.654;14.376;2022-12-22T07:35:36;12.57;;;10.87;;
16442;SDS011;8331;51.654;14.376;2022-12-22T07:38:03;11.97;;;10.07;;
16442;SDS011;8331;51.654;14.376;2022-12-22T07:40:29;11.80;;;10.60;;
16442;SDS011;8331;51.654;14.376;2022-12-22T07:42:56;11.30;;;9.93;;
16442;SDS011;8331;51.654;14.376;2022-12-22T07:45:23;11.93;;;10.63;;
16442;SDS011;8331;51.654;14.376;2022-12-22T07:47:50;10.77;;;9.53;;
16442;SDS011;8331;51.654;14.376;2022-12-22T07:50:18;12.23;;;10.67;;
16442;SDS011;8331;51.654;14.376;2022-12-22T07:52:51;12.03;;;9.87;;
16442;SDS011;8331;51.654;14.376;2022-12-22T07:55:18;10.83;;;9.73;;
16442;SDS011;8331;51.654;14.376;2022-12-22T07:57:45;11.80;;;10.07;;
16442;SDS011;8331;51.654;14.376;2022-12-22T08:00:12;11.30;;;10.00;;
16442;SDS011;8331;51.654;14.376;2022-12-22T08:02:39;14.20;;;10.50;;
16442;SDS011;8331;51.654;14.376;2022-12-22T08:05:06;10.77;;;9.57;;
16442;SDS011;8331;51.654;14.376;2022-12-22T08:07:33;12.47;;;9.90;;
16442;SDS011;8331;51.654;14.376;2022-12-22T08:09:59;11.70;;;9.77;;
16442;SDS011;8331;51.654;14.376;2022-12-22T08:12:26;11.07;;;9.93;;
16442;SDS011;8331;51.654;14.376;2022-12-22T08:14:55;10.67;;;9.57;;
16442;SDS011;8331;51.654;14.376;2022-12-22T08:17:21;12.70;;;10.43;;
16442;SDS011;8331;51.654;14.376;2022-12-22T08:19:48;12.43;;;10.57;;
16442;SDS011;8331;51.654;14.376;2022-12-22T08:22:14;23.50;;;17.50;;
16442;SDS011;8331;51.654;14.376;2022-12-22T08:24:41;22.27;;;19.10;;
16442;SDS011;8331;51.654;14.376;2022-12-22T08:27:10;11.40;;;10.03;;
16442;SDS011;8331;51.654;14.376;2022-12-22T08:29:39;12.03;;;10.83;;
16442;SDS011;8331;51.654;14.376;2022-12-22T08:32:06;13.83;;;12.20;;
16442;SDS011;8331;51.654;14.376;2022-12-22T08:34:33;10.90;;;9.63;;
16442;SDS011;8331;51.654;14.376;2022-12-22T08:36:59;11.03;;;9.77;;
16442;SDS011;8331;51.654;14.376;2022-12-22T08:39:29;16.80;;;13.90;;
16442;SDS011;8331;51.654;14.376;2022-12-22T08:41:57;48.67;;;29.37;;
16442;SDS011;8331;51.654;14.376;2022-12-22T08:44:28;11.60;;;10.07;;
16442;SDS011;8331;51.654;14.376;2022-12-22T08:46:56;25.20;;;17.33;;
16442;SDS011;8331;51.654;14.376;2022-12-22T08:49:23;13.17;;;10.77;;
16442;SDS011;8331;51.654;14.376;2022-12-22T08:51:50;24.67;;;16.80;;
16442;SDS011;8331;51.654;14.376;2022-12-22T08:54:17;10.40;;;9.27;;
16442;SDS011;8331;51.654;14.376;2022-12-22T08:56:43;23.67;;;13.37;;
16442;SDS011;8331;51.654;14.376;2022-12-22T08:59:10;10.77;;;9.67;;
16442;SDS011;8331;51.654;14.376;2022-12-22T09:01:38;16.73;;;11.40;;
16442;SDS011;8331;51.654;14.376;2022-12-22T09:04:05;31.00;;;17.57;;
16442;SDS011;8331;51.654;14.376;2022-12-22T09:06:32;16.40;;;12.00;;
16442;SDS011;8331;51.654;14.376;2022-12-22T09:09:06;57.57;;;27.30;;
16442;SDS011;8331;51.654;14.376;2022-12-22T09:11:33;26.67;;;14.40;;
16442;SDS011;8331;51.654;14.376;2022-12-22T09:14:00;29.47;;;16.03;;
16442;SDS011;8331;51.654;14.376;2022-12-22T09:16:28;23.83;;;13.80;;
16442;SDS011;8331;51.654;14.376;2022-12-22T09:18:55;11.27;;;9.97;;
16442;SDS011;8331;51.654;14.376;2022-12-22T09:21:22;10.97;;;9.33;;
16442;SDS011;8331;51.654;14.376;2022-12-22T09:23:49;9.53;;;8.63;;
16442;SDS011;8331;51.654;14.376;2022-12-22T09:26:17;8.47;;;7.60;;
16442;SDS011;8331;51.654;14.376;2022-12-22T09:28:44;10.80;;;9.70;;
16442;SDS011;8331;51.654;14.376;2022-12-22T09:31:16;10.07;;;8.57;;
16442;SDS011;8331;51.654;14.376;2022-12-22T09:33:43;9.13;;;8.23;;
16442;SDS011;8331;51.654;14.376;2022-12-22T09:36:10;9.00;;;8.10;;
16442;SDS011;8331;51.654;14.376;2022-12-22T09:38:38;10.10;;;9.10;;
16442;SDS011;8331;51.654;14.376;2022-12-22T09:41:08;12.13;;;10.93;;
16442;SDS011;8331;51.654;14.376;2022-12-22T09:43:35;23.80;;;18.67;;
16442;SDS011;8331;51.654;14.376;2022-12-22T09:46:02;38.97;;;30.30;;
16442;SDS011;8331;51.654;14.376;2022-12-22T09:48:33;53.07;;;38.77;;
16442;SDS011;8331;51.654;14.376;2022-12-22T09:51:01;19.20;;;16.03;;
16442;SDS011;8331;51.654;14.376;2022-12-22T09:53:29;16.57;;;14.77;;
16442;SDS011;8331;51.654;14.376;2022-12-22T09:55:57;16.23;;;13.87;;
16442;SDS011;8331;51.654;14.376;2022-12-22T09:58:28;9.63;;;8.73;;
16442;SDS011;8331;51.654;14.376;2022-12-22T10:01:00;10.20;;;9.13;;
16442;SDS011;8331;51.654;14.376;2022-12-22T10:04:11;18.27;;;16.30;;
16442;SDS011;8331;51.654;14.376;2022-12-22T10:06:31;13.53;;;11.83;;
16442;SDS011;8331;51.654;14.376;2022-12-22T10:09:07;14.03;;;12.63;;
16442;SDS011;8331;51.654;14.376;2022-12-22T10:12:00;11.27;;;10.10;;
16442;SDS011;8331;51.654;14.376;2022-12-22T10:14:32;13.10;;;10.07;;
16442;SDS011;8331;51.654;14.376;2022-12-22T10:19:45;11.53;;;9.97;;
16442;SDS011;8331;51.654;14.376;2022-12-22T10:22:21;10.83;;;9.17;;
16442;SDS011;8331;51.654;14.376;2022-12-22T10:24:50;12.70;;;11.00;;
16442;SDS011;8331;51.654;14.376;2022-12-22T10:27:16;9.93;;;8.93;;
16442;SDS011;8331;51.654;14.376;2022-12-22T10:29:48;11.60;;;10.40;;
16442;SDS011;8331;51.654;14.376;2022-12-22T10:32:16;10.97;;;9.37;;
16442;SDS011;8331;51.654;14.376;2022-12-22T10:35:01;12.53;;;10.70;;
16442;SDS011;8331;51.654;14.376;2022-12-22T10:37:34;12.70;;;11.00;;
16442;SDS011;8331;51.654;14.376;2022-12-22T10:40:15;14.43;;;12.10;;
16442;SDS011;8331;51.654;14.376;2022-12-22T10:42:44;13.47;;;10.57;;
16442;SDS011;8331;51.654;14.376;2022-12-22T10:45:18;12.17;;;10.77;;
16442;SDS011;8331;51.654;14.376;2022-12-22T10:47:46;11.60;;;10.00;;
16442;SDS011;8331;51.654;14.376;2022-12-22T10:50:13;12.53;;;10.63;;
16442;SDS011;8331;51.654;14.376;2022-12-22T10:52:40;15.60;;;11.77;;
16442;SDS011;8331;51.654;14.376;2022-12-22T10:55:15;12.07;;;10.83;;
16442;SDS011;8331;51.654;14.376;2022-12-22T10:57:42;14.90;;;11.93;;
16442;SDS011;8331;51.654;14.376;2022-12-22T11:00:23;35.63;;;31.13;;
16442;SDS011;8331;51.654;14.376;2022-12-22T11:02:50;13.10;;;11.50;;
16442;SDS011;8331;51.654;14.376;2022-12-22T11:05:18;15.27;;;11.40;;
16442;SDS011;8331;51.654;14.376;2022-12-22T11:07:45;12.20;;;10.97;;
16442;SDS011;8331;51.654;14.376;2022-12-22T11:39:23;28.50;;;21.00;;
16442;SDS011;8331;51.654;14.376;2022-12-22T11:49:31;17.60;;;15.87;;
16442;SDS011;8331;51.654;14.376;2022-12-22T11:57:43;14.37;;;11.53;;
16442;SDS011;8331;51.654;14.376;2022-12-22T12:10:27;12.10;;;10.90;;
16442;SDS011;8331;51.654;14.376;2022-12-22T12:15:37;13.63;;;11.67;;
16442;SDS011;8331;51.654;14.376;2022-12-22T12:18:11;12.93;;;11.57;;
16442;SDS011;8331;51.654;14.376;2022-12-22T12:29:14;12.03;;;10.87;;
16442;SDS011;8331;51.654;14.376;2022-12-22T12:34:31;13.47;;;10.47;;
16442;SDS011;8331;51.654;14.376;2022-12-22T12:37:02;14.47;;;12.10;;
16442;SDS011;8331;51.654;14.376;2022-12-22T12:42:18;11.73;;;10.53;;
16442;SDS011;8331;51.654;14.376;2022-12-22T12:44:47;10.87;;;9.77;;
16442;SDS011;8331;51.654;14.376;2022-12-22T12:47:21;11.10;;;9.90;;
16442;SDS011;8331;51.654;14.376;2022-12-22T12:57:57;11.20;;;9.83;;
16442;SDS011;8331;51.654;14.376;2022-12-22T13:03:04;9.87;;;8.80;;
16442;SDS011;8331;51.654;14.376;2022-12-22T13:08:15;10.37;;;9.03;;
16442;SDS011;8331;51.654;14.376;2022-12-22T13:10:49;10.03;;;9.03;;
16442;SDS011;8331;51.654;14.376;2022-12-22T13:21:41;9.17;;;8.27;;
16442;SDS011;8331;51.654;14.376;2022-12-22T13:24:15;8.93;;;7.90;;
16442;SDS011;8331;51.654;14.376;2022-12-22T13:26:54;8.10;;;7.30;;
16442;SDS011;8331;51.654;14.376;2022-12-22T13:29:59;17.17;;;15.37;;
16442;SDS011;8331;51.654;14.376;2022-12-22T13:32:20;10.77;;;9.87;;
16442;SDS011;8331;51.654;14.376;2022-12-22T13:37:38;8.70;;;7.87;;
16442;SDS011;8331;51.654;14.376;2022-12-22T13:40:40;7.83;;;7.10;;
16442;SDS011;8331;51.654;14.376;2022-12-22T13:43:03;8.40;;;7.60;;
16442;SDS011;8331;51.654;14.376;2022-12-22T13:45:34;8.33;;;7.63;;
16442;SDS011;8331;51.654;14.376;2022-12-22T13:48:04;8.43;;;7.53;;
16442;SDS011;8331;51.654;14.376;2022-12-22T13:50:38;8.97;;;8.17;;
16442;SDS011;8331;51.654;14.376;2022-12-22T13:53:07;10.20;;;9.23;;
16442;SDS011;8331;51.654;14.376;2022-12-22T13:55:35;18.17;;;16.23;;
16442;SDS011;8331;51.654;14.376;2022-12-22T13:58:14;9.03;;;8.20;;
16442;SDS011;8331;51.654;14.376;2022-12-22T14:00:58;14.30;;;12.90;;
16442;SDS011;8331;51.654;14.376;2022-12-22T14:03:25;10.23;;;9.17;;
16442;SDS011;8331;51.654;14.376;2022-12-22T14:06:19;10.73;;;9.77;;
16442;SDS011;8331;51.654;14.376;2022-12-22T14:08:45;16.50;;;15.00;;
16442;SDS011;8331;51.654;14.376;2022-12-22T14:11:12;9.77;;;8.97;;
16442;SDS011;8331;51.654;14.376;2022-12-22T14:13:39;8.43;;;7.73;;
16442;SDS011;8331;51.654;14.376;2022-12-22T14:16:10;8.60;;;7.70;;
16442;SDS011;8331;51.654;14.376;2022-12-22T14:18:38;8.00;;;7.20;;
16442;SDS011;8331;51.654;14.376;2022-12-22T14:21:05;8.27;;;7.57;;
16442;SDS011;8331;51.654;14.376;2022-12-22T14:23:33;8.27;;;7.33;;
16442;SDS011;8331;51.654;14.376;2022-12-22T14:26:00;8.67;;;7.40;;
16442;SDS011;8331;51.654;14.376;2022-12-22T14:28:32;8.03;;;7.33;;
16442;SDS011;8331;51.654;14.376;2022-12-22T14:31:00;8.23;;;7.43;;
16442;SDS011;8331;51.654;14.376;2022-12-22T14:33:29;8.53;;;7.73;;
16442;SDS011;8331;51.654;14.376;2022-12-22T14:38:42;9.00;;;8.20;;
16442;SDS011;8331;51.654;14.376;2022-12-22T14:41:10;13.90;;;12.47;;
16442;SDS011;8331;51.654;14.376;2022-12-22T14:43:58;12.33;;;11.13;;
16442;SDS011;8331;51.654;14.376;2022-12-22T14:46:25;10.90;;;9.90;;
16442;SDS011;8331;51.654;14.376;2022-12-22T14:48:51;9.63;;;8.70;;
16442;SDS011;8331;51.654;14.376;2022-12-22T14:51:18;9.60;;;8.47;;
16442;SDS011;8331;51.654;14.376;2022-12-22T14:56:15;10.13;;;7.93;;
16442;SDS011;8331;51.654;14.376;2022-12-22T14:58:44;8.20;;;7.50;;
16442;SDS011;8331;51.654;14.376;2022-12-22T15:03:44;7.50;;;6.70;;
16442;SDS011;8331;51.654;14.376;2022-12-22T15:06:20;8.93;;;7.07;;
16442;SDS011;8331;51.654;14.376;2022-12-22T15:08:47;8.23;;;7.43;;
16442;SDS011;8331;51.654;14.376;2022-12-22T15:11:15;7.80;;;7.10;;
16442;SDS011;8331;51.654;14.376;2022-12-22T15:13:43;7.80;;;7.10;;
16442;SDS011;8331;51.654;14.376;2022-12-22T15:16:14;7.00;;;6.30;;
16442;SDS011;8331;51.654;14.376;2022-12-22T15:18:41;10.40;;;8.93;;
16442;SDS011;8331;51.654;14.376;2022-12-22T15:21:08;7.67;;;6.63;;
16442;SDS011;8331;51.654;14.376;2022-12-22T15:23:37;7.07;;;6.47;;
16442;SDS011;8331;51.654;14.376;2022-12-22T15:26:04;7.30;;;6.60;;
16442;SDS011;8331;51.654;14.376;2022-12-22T15:28:30;6.60;;;6.00;;
16442;SDS011;8331;51.654;14.376;2022-12-22T15:30:57;7.33;;;6.63;;
16442;SDS011;8331;51.654;14.376;2022-12-22T15:33:24;6.87;;;6.17;;
16442;SDS011;8331;51.654;14.376;2022-12-22T15:35:51;5.97;;;5.47;;
16442;SDS011;8331;51.654;14.376;2022-12-22T15:38:19;6.33;;;5.73;;
16442;SDS011;8331;51.654;14.376;2022-12-22T15:40:46;6.43;;;5.93;;
16442;SDS011;8331;51.654;14.376;2022-12-22T15:43:13;6.10;;;5.50;;
16442;SDS011;8331;51.654;14.376;2022-12-22T15:46:00;6.13;;;5.53;;
16442;SDS011;8331;51.654;14.376;2022-12-22T15:48:28;6.83;;;5.83;;
16442;SDS011;8331;51.654;14.376;2022-12-22T15:50:56;5.70;;;5.23;;
16442;SDS011;8331;51.654;14.376;2022-12-22T15:53:22;6.37;;;5.77;;
16442;SDS011;8331;51.654;14.376;2022-12-22T15:55:50;6.10;;;5.57;;
16442;SDS011;8331;51.654;14.376;2022-12-22T15:58:17;6.20;;;5.60;;
16442;SDS011;8331;51.654;14.376;2022-12-22T16:00:45;6.47;;;5.73;;
16442;SDS011;8331;51.654;14.376;2022-12-22T16:03:12;6.63;;;5.40;;
16442;SDS011;8331;51.654;14.376;2022-12-22T16:05:39;6.47;;;5.83;;
16442;SDS011;8331;51.654;14.376;2022-12-22T16:08:13;5.93;;;5.43;;
16442;SDS011;8331;51.654;14.376;2022-12-22T16:10:43;6.37;;;5.77;;
16442;SDS011;8331;51.654;14.376;2022-12-22T16:13:12;7.77;;;5.37;;
16442;SDS011;8331;51.654;14.376;2022-12-22T16:15:44;7.63;;;5.80;;
16442;SDS011;8331;51.654;14.376;2022-12-22T16:18:11;6.20;;;5.60;;
16442;SDS011;8331;51.654;14.376;2022-12-22T16:20:38;6.67;;;5.37;;
16442;SDS011;8331;51.654;14.376;2022-12-22T16:23:06;5.93;;;5.40;;
16442;SDS011;8331;51.654;14.376;2022-12-22T16:25:36;4.73;;;4.33;;
16442;SDS011;8331;51.654;14.376;2022-12-22T16:28:04;6.87;;;4.70;;
16442;SDS011;8331;51.654;14.376;2022-12-22T16:30:32;3.97;;;3.67;;
16442;SDS011;8331;51.654;14.376;2022-12-22T16:32:59;4.70;;;4.30;;
16442;SDS011;8331;51.654;14.376;2022-12-22T16:35:27;4.10;;;3.80;;
16442;SDS011;8331;51.654;14.376;2022-12-22T16:37:54;4.30;;;3.90;;
16442;SDS011;8331;51.654;14.376;2022-12-22T16:40:21;4.13;;;3.83;;
16442;SDS011;8331;51.654;14.376;2022-12-22T16:42:48;4.00;;;3.70;;
16442;SDS011;8331;51.654;14.376;2022-12-22T16:45:34;4.13;;;3.83;;
16442;SDS011;8331;51.654;14.376;2022-12-22T16:48:03;4.13;;;3.83;;
16442;SDS011;8331;51.654;14.376;2022-12-22T16:50:30;4.90;;;4.60;;
16442;SDS011;8331;51.654;14.376;2022-12-22T16:53:03;5.30;;;4.90;;
16442;SDS011;8331;51.654;14.376;2022-12-22T16:55:30;4.77;;;4.37;;
16442;SDS011;8331;51.654;14.376;2022-12-22T16:57:57;5.17;;;4.77;;
16442;SDS011;8331;51.654;14.376;2022-12-22T17:00:25;5.37;;;4.97;;
16442;SDS011;8331;51.654;14.376;2022-12-22T17:03:14;5.37;;;4.97;;
16442;SDS011;8331;51.654;14.376;2022-12-22T17:05:40;5.33;;;4.93;;
16442;SDS011;8331;51.654;14.376;2022-12-22T17:08:18;5.27;;;4.80;;
16442;SDS011;8331;51.654;14.376;2022-12-22T17:10:46;5.00;;;4.60;;
16442;SDS011;8331;51.654;14.376;2022-12-22T17:13:12;4.60;;;4.30;;
16442;SDS011;8331;51.654;14.376;2022-12-22T17:15:39;5.33;;;5.00;;
16442;SDS011;8331;51.654;14.376;2022-12-22T17:18:15;4.90;;;4.37;;